Valtellina — ICKF — position and weather

sailwx.info

Track history (hours):
 
Tides and Currents Weather Stations Pressure Air Temp Water Temp Dewpoint Dewpoint Depression Visibility Wind Speed Wind Dir Waves Ship Positions

Valtellina

Last reported at 2017-Dec-10 07:48 UTC. Time now 2017-Dec-12 02:59 UTC.
Position N 44°09' E 013°19'.

Length 184 m; draft 7.3 m.

Type: Ship (hazmat cat A). MMSI: 247243900.

Date/timePositionNaut miles runAvg speedWind from/ knotsBaromVisibWave heightAir tempDewpointWater temp
2017-Dec-10 07:48N 44°09' E 013°19'412.4
2017-Dec-10 07:30N 44°12' E 013°14'1012.4
2017-Dec-10 06:44N 44°17' E 013°04'32 1.4
2017-Dec-09 07:48N 44°31' E 012°23'1 3.7
2017-Dec-09 07:26N 44°30' E 012°24'1 0.9
2017-Dec-09 06:51N 44°30' E 012°23'2 5.4
2017-Dec-09 06:30N 44°30' E 012°26'1 2.7
2017-Dec-09 05:58N 44°31' E 012°27'0 0.1
2017-Dec-09 05:28N 44°31' E 012°27'0 0.0
2017-Dec-09 02:58N 44°31' E 012°27'0 0.1
2017-Dec-09 02:19N 44°31' E 012°27'0 0.0
2017-Dec-09 01:52N 44°31' E 012°27'0 0.0
2017-Dec-09 01:25N 44°31' E 012°27'0 0.0
2017-Dec-09 00:58N 44°31' E 012°27'0 0.0
2017-Dec-09 00:28N 44°31' E 012°27'0 0.0
2017-Dec-08 23:58N 44°31' E 012°27'0 0.1
2017-Dec-08 23:28N 44°31' E 012°27'0 0.0
2017-Dec-08 22:46N 44°31' E 012°27'0 0.1
2017-Dec-08 22:19N 44°31' E 012°27'0 0.0
2017-Dec-08 21:43N 44°31' E 012°27'0 0.1
2017-Dec-08 21:28N 44°31' E 012°27'0 0.0
2017-Dec-08 20:58N 44°31' E 012°27'0 0.0
2017-Dec-08 20:28N 44°31' E 012°27'0 0.0
2017-Dec-08 19:58N 44°31' E 012°27'0 0.1
2017-Dec-08 19:28N 44°31' E 012°27'0 0.1
2017-Dec-08 18:58N 44°31' E 012°27'0 0.1
2017-Dec-08 18:25N 44°31' E 012°27'0 0.1
2017-Dec-08 17:58N 44°31' E 012°27'0 0.2
2017-Dec-08 17:28N 44°31' E 012°27'1 2.5
2017-Dec-08 17:00N 44°31' E 012°29'5 9.1
2017-Dec-08 16:30N 44°30' E 012°35'1111.6
2017-Dec-08 15:34N 44°40' E 012°43'112.9
2017-Dec-08 15:28N 44°41' E 012°44'612.4
2017-Dec-08 15:00N 44°45' E 012°49'612.0
2017-Dec-08 14:30N 44°50' E 012°55'611.7
2017-Dec-08 14:00N 44°54' E 013°00'611.9
2017-Dec-08 13:30N 44°60' E 013°01'612.1
2017-Dec-08 13:00N 45°06' E 013°01'612.3
2017-Dec-08 12:30N 45°12' E 012°59'612.7
2017-Dec-08 12:00N 45°18' E 012°58'611.4
2017-Dec-08 11:30N 45°24' E 013°00'612.4
2017-Dec-08 11:00N 45°28' E 013°07'612.8
2017-Dec-08 10:30N 45°31' E 013°15'612.8
2017-Dec-08 10:00N 45°35' E 013°22'612.8
2017-Dec-08 09:31N 45°37' E 013°31'612.3
2017-Dec-08 09:00N 45°38' E 013°40'5 9.7
2017-Dec-08 08:31N 45°37' E 013°46'1 1.8
2017-Dec-08 07:59N 45°36' E 013°48'0 0.0
2017-Dec-08 07:26N 45°36' E 013°48'0 0.0
2017-Dec-08 06:53N 45°36' E 013°48'0 0.0
2017-Dec-08 06:26N 45°36' E 013°48'0 0.0
2017-Dec-08 05:56N 45°36' E 013°48'0 0.0
2017-Dec-08 05:29N 45°36' E 013°48'0 0.0
2017-Dec-08 04:59N 45°36' E 013°48'0 0.0
2017-Dec-08 04:29N 45°36' E 013°48'0 0.0
2017-Dec-08 03:59N 45°36' E 013°48'0 0.0
2017-Dec-08 03:29N 45°36' E 013°48'0 0.0
2017-Dec-08 02:59N 45°36' E 013°48'0 0.0
2017-Dec-08 02:29N 45°36' E 013°48'0 0.0
2017-Dec-08 01:53N 45°36' E 013°48'0 0.0
2017-Dec-08 01:29N 45°36' E 013°48'0 0.0
2017-Dec-08 00:56N 45°36' E 013°48'0 0.0
2017-Dec-08 00:29N 45°36' E 013°48'0 0.0
2017-Dec-07 23:59N 45°36' E 013°48'0 0.0
2017-Dec-07 23:29N 45°36' E 013°48'0 0.0
2017-Dec-07 22:59N 45°36' E 013°48'0 0.0
2017-Dec-07 22:29N 45°36' E 013°48'0 0.0
2017-Dec-07 21:59N 45°36' E 013°48'0 0.0
2017-Dec-07 21:29N 45°36' E 013°48'0 0.0
2017-Dec-07 20:59N 45°36' E 013°48'0 0.0
2017-Dec-07 20:29N 45°36' E 013°48'0 0.0
2017-Dec-07 19:59N 45°36' E 013°48'0 0.0
2017-Dec-07 19:29N 45°36' E 013°48'0 0.0
2017-Dec-07 18:56N 45°36' E 013°48'0 0.0
2017-Dec-07 18:29N 45°36' E 013°48'0 0.0
2017-Dec-07 17:59N 45°36' E 013°48'0 0.0
2017-Dec-07 17:29N 45°36' E 013°48'0 0.0
2017-Dec-07 16:59N 45°36' E 013°48'0 0.0
2017-Dec-07 16:29N 45°36' E 013°48'0 0.0
2017-Dec-07 15:59N 45°36' E 013°48'0 0.0
2017-Dec-07 14:23N 45°36' E 013°48'0 0.0
2017-Dec-07 13:53N 45°36' E 013°48'0 0.0
2017-Dec-07 13:29N 45°36' E 013°48'0 0.0
2017-Dec-07 12:17N 45°36' E 013°48'0 0.0
2017-Dec-07 11:59N 45°36' E 013°48'0 0.0
2017-Dec-07 11:23N 45°36' E 013°48'0 0.0
2017-Dec-07 10:56N 45°36' E 013°48'0 0.0
2017-Dec-07 10:29N 45°36' E 013°48'0 0.0
2017-Dec-07 09:56N 45°36' E 013°48'0 0.0
2017-Dec-07 09:26N 45°36' E 013°48'0 0.0
2017-Dec-07 08:56N 45°36' E 013°48'0 0.0
2017-Dec-07 08:29N 45°36' E 013°48'0 0.0
2017-Dec-07 07:53N 45°36' E 013°48'0 0.0
2017-Dec-07 07:29N 45°36' E 013°48'0 0.0
2017-Dec-07 06:53N 45°36' E 013°48'0 0.0
2017-Dec-07 06:23N 45°36' E 013°48'0 0.0
2017-Dec-07 05:59N 45°36' E 013°48'0 0.0
2017-Dec-07 05:17N 45°36' E 013°48'0 0.0
2017-Dec-07 04:59N 45°36' E 013°48'0 0.0
2017-Dec-07 04:29N 45°36' E 013°48'0 0.0
2017-Dec-07 03:59N 45°36' E 013°48'0 0.0
2017-Dec-07 03:29N 45°36' E 013°48'0 0.0
2017-Dec-07 02:56N 45°36' E 013°48'0 0.0
2017-Dec-07 02:26N 45°36' E 013°48'0 0.0
2017-Dec-07 01:59N 45°36' E 013°48'0 0.0
2017-Dec-07 01:29N 45°36' E 013°48'0 0.0
2017-Dec-07 00:59N 45°36' E 013°48'0 0.0
2017-Dec-07 00:23N 45°36' E 013°48'0 0.0
2017-Dec-06 23:59N 45°36' E 013°48'0 0.0
2017-Dec-06 23:29N 45°36' E 013°48'0 0.0
2017-Dec-06 22:50N 45°36' E 013°48'0 0.0
2017-Dec-06 22:26N 45°36' E 013°48'0 0.0
2017-Dec-06 21:59N 45°36' E 013°48'0 0.0
2017-Dec-06 21:29N 45°36' E 013°48'0 0.0
2017-Dec-06 20:59N 45°36' E 013°48'  
2017-Dec-04 03:14N 37°52' E 015°47'311.7
2017-Dec-04 03:00N 37°52' E 015°43'911.5
2017-Dec-04 02:13N 37°58' E 015°35'312.7
2017-Dec-04 01:58N 38°01' E 015°34'613.4
2017-Dec-04 01:30N 38°08' E 015°35'612.4
2017-Dec-04 01:00N 38°14' E 015°36'510.8
2017-Dec-04 00:30N 38°18' E 015°41'511.0
2017-Dec-04 00:00N 38°21' E 015°35'611.7
2017-Dec-03 23:30N 38°19' E 015°27'612.1
2017-Dec-03 23:00N 38°16' E 015°21'5 9.6
2017-Dec-03 22:30N 38°13' E 015°16'0 0.3
2017-Dec-03 21:57N 38°13' E 015°16'1 1.4
2017-Dec-03 21:30N 38°13' E 015°16'0 0.5
2017-Dec-03 21:00N 38°13' E 015°16'0 0.0
2017-Dec-03 20:30N 38°13' E 015°16'0 0.0
2017-Dec-03 20:00N 38°13' E 015°16'0 0.0
2017-Dec-03 19:24N 38°13' E 015°16'0 0.0
2017-Dec-03 19:00N 38°13' E 015°16'0 0.0
2017-Dec-03 18:30N 38°13' E 015°16'0 0.0
2017-Dec-03 18:00N 38°13' E 015°16'0 0.0
2017-Dec-03 17:30N 38°13' E 015°16'0 0.0
2017-Dec-03 17:00N 38°13' E 015°16'0 0.0
2017-Dec-03 16:30N 38°13' E 015°16'0 0.0
2017-Dec-03 16:00N 38°13' E 015°16'0 0.0
2017-Dec-03 15:30N 38°13' E 015°16'0 0.0
2017-Dec-03 15:00N 38°13' E 015°16'0 0.0
2017-Dec-03 14:30N 38°13' E 015°16'0 0.0
2017-Dec-03 14:00N 38°13' E 015°16'0 0.0
2017-Dec-03 13:30N 38°13' E 015°16'0 0.0
2017-Dec-03 13:00N 38°13' E 015°16'0 0.0
2017-Dec-03 12:30N 38°13' E 015°16'0 0.0
2017-Dec-03 12:00N 38°13' E 015°16'0 0.0
2017-Dec-03 11:30N 38°13' E 015°16'0 0.0
2017-Dec-03 11:00N 38°13' E 015°16'0 0.0
2017-Dec-03 10:30N 38°13' E 015°16'0 0.0
2017-Dec-03 10:00N 38°13' E 015°16'0 0.0
2017-Dec-03 09:30N 38°13' E 015°16'0 0.0
2017-Dec-03 09:00N 38°13' E 015°16'0 0.0
2017-Dec-03 08:30N 38°13' E 015°16'0 0.0
2017-Dec-03 08:00N 38°13' E 015°16'0 0.0
2017-Dec-03 07:30N 38°13' E 015°16'0 0.0
2017-Dec-03 07:00N 38°13' E 015°16'0 0.0
2017-Dec-03 06:30N 38°13' E 015°16'0 0.0
2017-Dec-03 06:00N 38°13' E 015°16'0 0.0
2017-Dec-03 05:30N 38°13' E 015°16'0 0.0
2017-Dec-03 05:00N 38°13' E 015°16'0 0.0
2017-Dec-03 04:30N 38°13' E 015°16'0 0.0
2017-Dec-03 04:00N 38°13' E 015°16'0 0.0
2017-Dec-03 03:30N 38°13' E 015°16'0 0.0
2017-Dec-03 03:00N 38°13' E 015°16'0 0.0
2017-Dec-03 02:30N 38°13' E 015°16'0 0.0
2017-Dec-03 02:00N 38°13' E 015°16'0 0.0
2017-Dec-03 01:30N 38°13' E 015°16'0 0.0
2017-Dec-03 01:00N 38°13' E 015°16'0 0.0
2017-Dec-03 00:30N 38°13' E 015°16'0 0.0
2017-Dec-03 00:00N 38°13' E 015°16'0 0.0
2017-Dec-02 23:30N 38°13' E 015°16'0 0.0
2017-Dec-02 23:00N 38°13' E 015°16'0 0.0
2017-Dec-02 22:30N 38°13' E 015°16'0 0.0
2017-Dec-02 22:00N 38°13' E 015°16'0 0.0
2017-Dec-02 21:30N 38°13' E 015°16'0 0.0
2017-Dec-02 21:00N 38°13' E 015°16'0 0.0
2017-Dec-02 20:30N 38°13' E 015°16'0 0.0
2017-Dec-02 20:00N 38°13' E 015°16'0 0.0
2017-Dec-02 19:30N 38°13' E 015°16'0 0.0
2017-Dec-02 19:00N 38°13' E 015°16'0 0.0
2017-Dec-02 18:30N 38°13' E 015°16'0 0.0
2017-Dec-02 18:00N 38°13' E 015°16'0 0.0
2017-Dec-02 17:30N 38°13' E 015°16'0 0.0
2017-Dec-02 17:00N 38°13' E 015°16'0 0.0
2017-Dec-02 16:30N 38°13' E 015°16'0 0.0
2017-Dec-02 16:00N 38°13' E 015°16'0 0.0
2017-Dec-02 15:30N 38°13' E 015°16'0 0.0
2017-Dec-02 15:00N 38°13' E 015°16'0 0.0
2017-Dec-02 14:30N 38°13' E 015°16'0 0.8
2017-Dec-02 14:00N 38°13' E 015°16'0 0.9
2017-Dec-02 13:30N 38°13' E 015°17'0 0.1
2017-Dec-02 13:00N 38°13' E 015°17'0 0.1
2017-Dec-02 12:30N 38°13' E 015°17'0 0.2
2017-Dec-02 12:00N 38°13' E 015°17'0 0.1
2017-Dec-02 11:30N 38°13' E 015°17'0 0.0
2017-Dec-02 11:00N 38°13' E 015°17'0 0.0
2017-Dec-02 10:30N 38°13' E 015°17'0 0.1
2017-Dec-02 10:00N 38°13' E 015°17'0 0.1
2017-Dec-02 09:30N 38°13' E 015°17'0 0.1
2017-Dec-02 09:00N 38°13' E 015°17'0 0.0
2017-Dec-02 08:30N 38°13' E 015°17'0 0.0
2017-Dec-02 08:00N 38°13' E 015°17'0 0.1
2017-Dec-02 07:30N 38°13' E 015°17'0 0.1
2017-Dec-02 07:00N 38°13' E 015°17'0 0.1
2017-Dec-02 06:18N 38°13' E 015°17'0 0.0
2017-Dec-02 06:00N 38°13' E 015°17'0 0.0
2017-Dec-02 05:30N 38°13' E 015°17'0 0.1
2017-Dec-02 05:00N 38°13' E 015°17'0 0.0
2017-Dec-02 04:30N 38°13' E 015°17'0 0.1
2017-Dec-02 04:00N 38°13' E 015°17'0 0.1
2017-Dec-02 03:30N 38°13' E 015°17'0 0.0
2017-Dec-02 03:00N 38°13' E 015°17'0 0.0
2017-Dec-02 02:30N 38°13' E 015°17'0 0.0
2017-Dec-02 02:00N 38°13' E 015°17'0 0.1
2017-Dec-02 01:30N 38°13' E 015°17'0 0.0
2017-Dec-02 01:00N 38°13' E 015°17'0 0.0
2017-Dec-02 00:30N 38°13' E 015°17'0 0.0
2017-Dec-02 00:00N 38°13' E 015°17'0 0.0
2017-Dec-01 23:30N 38°13' E 015°17'0 0.0
2017-Dec-01 23:00N 38°13' E 015°17'0 0.1
2017-Dec-01 22:30N 38°13' E 015°17'0 0.0
2017-Dec-01 22:00N 38°13' E 015°17'0 0.1
2017-Dec-01 21:30N 38°13' E 015°17'0 0.2
2017-Dec-01 21:00N 38°13' E 015°17'0 0.1
2017-Dec-01 20:30N 38°13' E 015°17'0 0.1
2017-Dec-01 20:00N 38°13' E 015°17'0 0.1
2017-Dec-01 19:30N 38°13' E 015°17'0 0.1
2017-Dec-01 19:00N 38°13' E 015°17'0 0.0
2017-Dec-01 18:30N 38°13' E 015°17'0 0.1
2017-Dec-01 18:00N 38°13' E 015°17'0 0.1
2017-Dec-01 17:30N 38°13' E 015°17'0 0.2
2017-Dec-01 17:00N 38°13' E 015°17'0 0.2
2017-Dec-01 16:30N 38°13' E 015°17'0 0.1
2017-Dec-01 16:00N 38°13' E 015°17'0 0.3
2017-Dec-01 15:30N 38°13' E 015°17'0 0.1
2017-Dec-01 15:00N 38°13' E 015°17'0 0.2
2017-Dec-01 14:30N 38°13' E 015°17'0 0.1
2017-Dec-01 14:00N 38°13' E 015°17'2 3.1
2017-Dec-01 13:30N 38°15' E 015°17'2 4.1
2017-Dec-01 13:00N 38°16' E 015°19'5 9.3
2017-Dec-01 12:30N 38°19' E 015°24'611.9
2017-Dec-01 12:00N 38°21' E 015°31'612.1
2017-Dec-01 11:30N 38°20' E 015°38'6 6.5
2017-Dec-01 10:34N 38°14' E 015°37'113.2
2017-Dec-01 10:30N 38°13' E 015°37'611.1
2017-Dec-01 10:00N 38°08' E 015°36'611.9
2017-Dec-01 09:30N 38°02' E 015°35'611.8
2017-Dec-01 08:59N 37°56' E 015°36'611.7
2017-Dec-01 08:26N 37°50' E 015°38'512.1
2017-Dec-01 08:00N 37°47' E 015°44'613.0
2017-Dec-01 07:30N 37°45' E 015°52'612.9
2017-Dec-01 07:00N 37°42' E 015°59'612.9
2017-Dec-01 06:30N 37°39' E 016°07'712.7
2017-Dec-01 05:59N 37°37' E 016°14'612.5
2017-Dec-01 05:30N 37°34' E 016°21'  
Track history (hours):
 
Tides and Currents Weather Stations Pressure Air Temp Water Temp Dewpoint Dewpoint Depression Visibility Wind Speed Wind Dir Waves Ship Positions

Valtellina

Last reported at 2017-Dec-10 07:48 UTC. Time now 2017-Dec-12 02:59 UTC.
Position N 44°09' E 013°19'.

Length 184 m; draft 7.3 m.

Type: Ship (hazmat cat A). MMSI: 247243900.

Date/timePositionNaut miles runAvg speedWind from/ knotsBaromVisibWave heightAir tempDewpointWater temp
2017-Dec-10 07:48N 44°09' E 013°19'412.4
2017-Dec-10 07:30N 44°12' E 013°14'1012.4
2017-Dec-10 06:44N 44°17' E 013°04'32 1.4
2017-Dec-09 07:48N 44°31' E 012°23'1 3.7
2017-Dec-09 07:26N 44°30' E 012°24'1 0.9
2017-Dec-09 06:51N 44°30' E 012°23'2 5.4
2017-Dec-09 06:30N 44°30' E 012°26'1 2.7
2017-Dec-09 05:58N 44°31' E 012°27'0 0.1
2017-Dec-09 05:28N 44°31' E 012°27'0 0.0
2017-Dec-09 02:58N 44°31' E 012°27'0 0.1
2017-Dec-09 02:19N 44°31' E 012°27'0 0.0
2017-Dec-09 01:52N 44°31' E 012°27'0 0.0
2017-Dec-09 01:25N 44°31' E 012°27'0 0.0
2017-Dec-09 00:58N 44°31' E 012°27'0 0.0
2017-Dec-09 00:28N 44°31' E 012°27'0 0.0
2017-Dec-08 23:58N 44°31' E 012°27'0 0.1
2017-Dec-08 23:28N 44°31' E 012°27'0 0.0
2017-Dec-08 22:46N 44°31' E 012°27'0 0.1
2017-Dec-08 22:19N 44°31' E 012°27'0 0.0
2017-Dec-08 21:43N 44°31' E 012°27'0 0.1
2017-Dec-08 21:28N 44°31' E 012°27'0 0.0
2017-Dec-08 20:58N 44°31' E 012°27'0 0.0
2017-Dec-08 20:28N 44°31' E 012°27'0 0.0
2017-Dec-08 19:58N 44°31' E 012°27'0 0.1
2017-Dec-08 19:28N 44°31' E 012°27'0 0.1
2017-Dec-08 18:58N 44°31' E 012°27'0 0.1
2017-Dec-08 18:25N 44°31' E 012°27'0 0.1
2017-Dec-08 17:58N 44°31' E 012°27'0 0.2
2017-Dec-08 17:28N 44°31' E 012°27'1 2.5
2017-Dec-08 17:00N 44°31' E 012°29'5 9.1
2017-Dec-08 16:30N 44°30' E 012°35'1111.6
2017-Dec-08 15:34N 44°40' E 012°43'112.9
2017-Dec-08 15:28N 44°41' E 012°44'612.4
2017-Dec-08 15:00N 44°45' E 012°49'612.0
2017-Dec-08 14:30N 44°50' E 012°55'611.7
2017-Dec-08 14:00N 44°54' E 013°00'611.9
2017-Dec-08 13:30N 44°60' E 013°01'612.1
2017-Dec-08 13:00N 45°06' E 013°01'612.3
2017-Dec-08 12:30N 45°12' E 012°59'612.7
2017-Dec-08 12:00N 45°18' E 012°58'611.4
2017-Dec-08 11:30N 45°24' E 013°00'612.4
2017-Dec-08 11:00N 45°28' E 013°07'612.8
2017-Dec-08 10:30N 45°31' E 013°15'612.8
2017-Dec-08 10:00N 45°35' E 013°22'612.8
2017-Dec-08 09:31N 45°37' E 013°31'612.3
2017-Dec-08 09:00N 45°38' E 013°40'5 9.7
2017-Dec-08 08:31N 45°37' E 013°46'1 1.8
2017-Dec-08 07:59N 45°36' E 013°48'0 0.0
2017-Dec-08 07:26N 45°36' E 013°48'0 0.0
2017-Dec-08 06:53N 45°36' E 013°48'0 0.0
2017-Dec-08 06:26N 45°36' E 013°48'0 0.0
2017-Dec-08 05:56N 45°36' E 013°48'0 0.0
2017-Dec-08 05:29N 45°36' E 013°48'0 0.0
2017-Dec-08 04:59N 45°36' E 013°48'0 0.0
2017-Dec-08 04:29N 45°36' E 013°48'0 0.0
2017-Dec-08 03:59N 45°36' E 013°48'0 0.0
2017-Dec-08 03:29N 45°36' E 013°48'0 0.0
2017-Dec-08 02:59N 45°36' E 013°48'0 0.0
2017-Dec-08 02:29N 45°36' E 013°48'0 0.0
2017-Dec-08 01:53N 45°36' E 013°48'0 0.0
2017-Dec-08 01:29N 45°36' E 013°48'0 0.0
2017-Dec-08 00:56N 45°36' E 013°48'0 0.0
2017-Dec-08 00:29N 45°36' E 013°48'0 0.0
2017-Dec-07 23:59N 45°36' E 013°48'0 0.0
2017-Dec-07 23:29N 45°36' E 013°48'0 0.0
2017-Dec-07 22:59N 45°36' E 013°48'0 0.0
2017-Dec-07 22:29N 45°36' E 013°48'0 0.0
2017-Dec-07 21:59N 45°36' E 013°48'0 0.0
2017-Dec-07 21:29N 45°36' E 013°48'0 0.0
2017-Dec-07 20:59N 45°36' E 013°48'0 0.0
2017-Dec-07 20:29N 45°36' E 013°48'0 0.0
2017-Dec-07 19:59N 45°36' E 013°48'0 0.0
2017-Dec-07 19:29N 45°36' E 013°48'0 0.0
2017-Dec-07 18:56N 45°36' E 013°48'0 0.0
2017-Dec-07 18:29N 45°36' E 013°48'0 0.0
2017-Dec-07 17:59N 45°36' E 013°48'0 0.0
2017-Dec-07 17:29N 45°36' E 013°48'0 0.0
2017-Dec-07 16:59N 45°36' E 013°48'0 0.0
2017-Dec-07 16:29N 45°36' E 013°48'0 0.0
2017-Dec-07 15:59N 45°36' E 013°48'0 0.0
2017-Dec-07 14:23N 45°36' E 013°48'0 0.0
2017-Dec-07 13:53N 45°36' E 013°48'0 0.0
2017-Dec-07 13:29N 45°36' E 013°48'0 0.0
2017-Dec-07 12:17N 45°36' E 013°48'0 0.0
2017-Dec-07 11:59N 45°36' E 013°48'0 0.0
2017-Dec-07 11:23N 45°36' E 013°48'0 0.0
2017-Dec-07 10:56N 45°36' E 013°48'0 0.0
2017-Dec-07 10:29N 45°36' E 013°48'0 0.0
2017-Dec-07 09:56N 45°36' E 013°48'0 0.0
2017-Dec-07 09:26N 45°36' E 013°48'0 0.0
2017-Dec-07 08:56N 45°36' E 013°48'0 0.0
2017-Dec-07 08:29N 45°36' E 013°48'0 0.0
2017-Dec-07 07:53N 45°36' E 013°48'0 0.0
2017-Dec-07 07:29N 45°36' E 013°48'0 0.0
2017-Dec-07 06:53N 45°36' E 013°48'0 0.0
2017-Dec-07 06:23N 45°36' E 013°48'0 0.0
2017-Dec-07 05:59N 45°36' E 013°48'0 0.0
2017-Dec-07 05:17N 45°36' E 013°48'0 0.0
2017-Dec-07 04:59N 45°36' E 013°48'0 0.0
2017-Dec-07 04:29N 45°36' E 013°48'0 0.0
2017-Dec-07 03:59N 45°36' E 013°48'0 0.0
2017-Dec-07 03:29N 45°36' E 013°48'0 0.0
2017-Dec-07 02:56N 45°36' E 013°48'0 0.0
2017-Dec-07 02:26N 45°36' E 013°48'0 0.0
2017-Dec-07 01:59N 45°36' E 013°48'0 0.0
2017-Dec-07 01:29N 45°36' E 013°48'0 0.0
2017-Dec-07 00:59N 45°36' E 013°48'0 0.0
2017-Dec-07 00:23N 45°36' E 013°48'0 0.0
2017-Dec-06 23:59N 45°36' E 013°48'0 0.0
2017-Dec-06 23:29N 45°36' E 013°48'0 0.0
2017-Dec-06 22:50N 45°36' E 013°48'0 0.0
2017-Dec-06 22:26N 45°36' E 013°48'0 0.0
2017-Dec-06 21:59N 45°36' E 013°48'0 0.0
2017-Dec-06 21:29N 45°36' E 013°48'0 0.0
2017-Dec-06 20:59N 45°36' E 013°48'  
2017-Dec-04 03:14N 37°52' E 015°47'311.7
2017-Dec-04 03:00N 37°52' E 015°43'911.5
2017-Dec-04 02:13N 37°58' E 015°35'312.7
2017-Dec-04 01:58N 38°01' E 015°34'613.4
2017-Dec-04 01:30N 38°08' E 015°35'612.4
2017-Dec-04 01:00N 38°14' E 015°36'510.8
2017-Dec-04 00:30N 38°18' E 015°41'511.0
2017-Dec-04 00:00N 38°21' E 015°35'611.7
2017-Dec-03 23:30N 38°19' E 015°27'612.1
2017-Dec-03 23:00N 38°16' E 015°21'5 9.6
2017-Dec-03 22:30N 38°13' E 015°16'0 0.3
2017-Dec-03 21:57N 38°13' E 015°16'1 1.4
2017-Dec-03 21:30N 38°13' E 015°16'0 0.5
2017-Dec-03 21:00N 38°13' E 015°16'0 0.0
2017-Dec-03 20:30N 38°13' E 015°16'0 0.0
2017-Dec-03 20:00N 38°13' E 015°16'0 0.0
2017-Dec-03 19:24N 38°13' E 015°16'0 0.0
2017-Dec-03 19:00N 38°13' E 015°16'0 0.0
2017-Dec-03 18:30N 38°13' E 015°16'0 0.0
2017-Dec-03 18:00N 38°13' E 015°16'0 0.0
2017-Dec-03 17:30N 38°13' E 015°16'0 0.0
2017-Dec-03 17:00N 38°13' E 015°16'0 0.0
2017-Dec-03 16:30N 38°13' E 015°16'0 0.0
2017-Dec-03 16:00N 38°13' E 015°16'0 0.0
2017-Dec-03 15:30N 38°13' E 015°16'0 0.0
2017-Dec-03 15:00N 38°13' E 015°16'0 0.0
2017-Dec-03 14:30N 38°13' E 015°16'0 0.0
2017-Dec-03 14:00N 38°13' E 015°16'0 0.0
2017-Dec-03 13:30N 38°13' E 015°16'0 0.0
2017-Dec-03 13:00N 38°13' E 015°16'0 0.0
2017-Dec-03 12:30N 38°13' E 015°16'0 0.0
2017-Dec-03 12:00N 38°13' E 015°16'0 0.0
2017-Dec-03 11:30N 38°13' E 015°16'0 0.0
2017-Dec-03 11:00N 38°13' E 015°16'0 0.0
2017-Dec-03 10:30N 38°13' E 015°16'0 0.0
2017-Dec-03 10:00N 38°13' E 015°16'0 0.0
2017-Dec-03 09:30N 38°13' E 015°16'0 0.0
2017-Dec-03 09:00N 38°13' E 015°16'0 0.0
2017-Dec-03 08:30N 38°13' E 015°16'0 0.0
2017-Dec-03 08:00N 38°13' E 015°16'0 0.0
2017-Dec-03 07:30N 38°13' E 015°16'0 0.0
2017-Dec-03 07:00N 38°13' E 015°16'0 0.0
2017-Dec-03 06:30N 38°13' E 015°16'0 0.0
2017-Dec-03 06:00N 38°13' E 015°16'0 0.0
2017-Dec-03 05:30N 38°13' E 015°16'0 0.0
2017-Dec-03 05:00N 38°13' E 015°16'0 0.0
2017-Dec-03 04:30N 38°13' E 015°16'0 0.0
2017-Dec-03 04:00N 38°13' E 015°16'0 0.0
2017-Dec-03 03:30N 38°13' E 015°16'0 0.0
2017-Dec-03 03:00N 38°13' E 015°16'0 0.0
2017-Dec-03 02:30N 38°13' E 015°16'0 0.0
2017-Dec-03 02:00N 38°13' E 015°16'0 0.0
2017-Dec-03 01:30N 38°13' E 015°16'0 0.0
2017-Dec-03 01:00N 38°13' E 015°16'0 0.0
2017-Dec-03 00:30N 38°13' E 015°16'0 0.0
2017-Dec-03 00:00N 38°13' E 015°16'0 0.0
2017-Dec-02 23:30N 38°13' E 015°16'0 0.0
2017-Dec-02 23:00N 38°13' E 015°16'0 0.0
2017-Dec-02 22:30N 38°13' E 015°16'0 0.0
2017-Dec-02 22:00N 38°13' E 015°16'0 0.0
2017-Dec-02 21:30N 38°13' E 015°16'0 0.0
2017-Dec-02 21:00N 38°13' E 015°16'0 0.0
2017-Dec-02 20:30N 38°13' E 015°16'0 0.0
2017-Dec-02 20:00N 38°13' E 015°16'0 0.0
2017-Dec-02 19:30N 38°13' E 015°16'0 0.0
2017-Dec-02 19:00N 38°13' E 015°16'0 0.0
2017-Dec-02 18:30N 38°13' E 015°16'0 0.0
2017-Dec-02 18:00N 38°13' E 015°16'0 0.0
2017-Dec-02 17:30N 38°13' E 015°16'0 0.0
2017-Dec-02 17:00N 38°13' E 015°16'0 0.0
2017-Dec-02 16:30N 38°13' E 015°16'0 0.0
2017-Dec-02 16:00N 38°13' E 015°16'0 0.0
2017-Dec-02 15:30N 38°13' E 015°16'0 0.0
2017-Dec-02 15:00N 38°13' E 015°16'0 0.0
2017-Dec-02 14:30N 38°13' E 015°16'0 0.8
2017-Dec-02 14:00N 38°13' E 015°16'0 0.9
2017-Dec-02 13:30N 38°13' E 015°17'0 0.1
2017-Dec-02 13:00N 38°13' E 015°17'0 0.1
2017-Dec-02 12:30N 38°13' E 015°17'0 0.2
2017-Dec-02 12:00N 38°13' E 015°17'0 0.1
2017-Dec-02 11:30N 38°13' E 015°17'0 0.0
2017-Dec-02 11:00N 38°13' E 015°17'0 0.0
2017-Dec-02 10:30N 38°13' E 015°17'0 0.1
2017-Dec-02 10:00N 38°13' E 015°17'0 0.1
2017-Dec-02 09:30N 38°13' E 015°17'0 0.1
2017-Dec-02 09:00N 38°13' E 015°17'0 0.0
2017-Dec-02 08:30N 38°13' E 015°17'0 0.0
2017-Dec-02 08:00N 38°13' E 015°17'0 0.1
2017-Dec-02 07:30N 38°13' E 015°17'0 0.1
2017-Dec-02 07:00N 38°13' E 015°17'0 0.1
2017-Dec-02 06:18N 38°13' E 015°17'0 0.0
2017-Dec-02 06:00N 38°13' E 015°17'0 0.0
2017-Dec-02 05:30N 38°13' E 015°17'0 0.1
2017-Dec-02 05:00N 38°13' E 015°17'0 0.0
2017-Dec-02 04:30N 38°13' E 015°17'0 0.1
2017-Dec-02 04:00N 38°13' E 015°17'0 0.1
2017-Dec-02 03:30N 38°13' E 015°17'0 0.0
2017-Dec-02 03:00N 38°13' E 015°17'0 0.0
2017-Dec-02 02:30N 38°13' E 015°17'0 0.0
2017-Dec-02 02:00N 38°13' E 015°17'0 0.1
2017-Dec-02 01:30N 38°13' E 015°17'0 0.0
2017-Dec-02 01:00N 38°13' E 015°17'0 0.0
2017-Dec-02 00:30N 38°13' E 015°17'0 0.0
2017-Dec-02 00:00N 38°13' E 015°17'0 0.0
2017-Dec-01 23:30N 38°13' E 015°17'0 0.0
2017-Dec-01 23:00N 38°13' E 015°17'0 0.1
2017-Dec-01 22:30N 38°13' E 015°17'0 0.0
2017-Dec-01 22:00N 38°13' E 015°17'0 0.1
2017-Dec-01 21:30N 38°13' E 015°17'0 0.2
2017-Dec-01 21:00N 38°13' E 015°17'0 0.1
2017-Dec-01 20:30N 38°13' E 015°17'0 0.1
2017-Dec-01 20:00N 38°13' E 015°17'0 0.1
2017-Dec-01 19:30N 38°13' E 015°17'0 0.1
2017-Dec-01 19:00N 38°13' E 015°17'0 0.0
2017-Dec-01 18:30N 38°13' E 015°17'0 0.1
2017-Dec-01 18:00N 38°13' E 015°17'0 0.1
2017-Dec-01 17:30N 38°13' E 015°17'0 0.2
2017-Dec-01 17:00N 38°13' E 015°17'0 0.2
2017-Dec-01 16:30N 38°13' E 015°17'0 0.1
2017-Dec-01 16:00N 38°13' E 015°17'0 0.3
2017-Dec-01 15:30N 38°13' E 015°17'0 0.1
2017-Dec-01 15:00N 38°13' E 015°17'0 0.2
2017-Dec-01 14:30N 38°13' E 015°17'0 0.1
2017-Dec-01 14:00N 38°13' E 015°17'2 3.1
2017-Dec-01 13:30N 38°15' E 015°17'2 4.1
2017-Dec-01 13:00N 38°16' E 015°19'5 9.3
2017-Dec-01 12:30N 38°19' E 015°24'611.9
2017-Dec-01 12:00N 38°21' E 015°31'612.1
2017-Dec-01 11:30N 38°20' E 015°38'6 6.5
2017-Dec-01 10:34N 38°14' E 015°37'113.2
2017-Dec-01 10:30N 38°13' E 015°37'611.1
2017-Dec-01 10:00N 38°08' E 015°36'611.9
2017-Dec-01 09:30N 38°02' E 015°35'611.8
2017-Dec-01 08:59N 37°56' E 015°36'611.7
2017-Dec-01 08:26N 37°50' E 015°38'512.1
2017-Dec-01 08:00N 37°47' E 015°44'613.0
2017-Dec-01 07:30N 37°45' E 015°52'612.9
2017-Dec-01 07:00N 37°42' E 015°59'612.9
2017-Dec-01 06:30N 37°39' E 016°07'712.7
2017-Dec-01 05:59N 37°37' E 016°14'612.5
2017-Dec-01 05:30N 37°34' E 016°21'  

Dump ship's entire track history